Time;durP1;ratioP1;P1;durP2;ratioP2;P2;SDS_P1;SDS_P2;PMS_P1;PMS_P2;Temp;Humidity;BMP_temperature;BMP_pressure;BME280_temperature;BME280_humidity;BME280_pressure;Samples;Min_cycle;Max_cycle;Signal;HPM_P1;HPM_P2
2022/10/20 00:01:45;;;;;;;6.93;4.00;;;10.30;99.90;;;;;;4140785;28;20038;-71
2022/10/20 00:03:47;;;;;;;7.85;3.78;;;10.20;99.90;;;;;;4137242;28;20546;-71
2022/10/20 00:05:48;;;;;;;6.10;3.50;;;10.20;99.90;;;;;;4137169;28;20034;-73
2022/10/20 00:07:48;;;;;;;8.80;4.30;;;10.20;99.90;;;;;;4136440;28;20456;-72
2022/10/20 00:09:49;;;;;;;5.85;3.70;;;10.20;99.90;;;;;;4139557;28;20061;-75
2022/10/20 00:11:49;;;;;;;12.00;4.32;;;10.20;99.90;;;;;;4135402;28;20503;-75
2022/10/20 00:13:52;;;;;;;6.55;3.80;;;10.10;99.90;;;;;;4138762;28;20026;-75
2022/10/20 00:15:55;;;;;;;6.45;4.10;;;10.00;99.90;;;;;;4129572;28;20496;-76
2022/10/20 00:17:55;;;;;;;8.57;4.45;;;10.00;99.90;;;;;;4135141;28;20030;-75
2022/10/20 00:19:57;;;;;;;7.63;4.30;;;10.00;99.90;;;;;;4154941;28;20107;-74
2022/10/20 00:21:58;;;;;;;12.70;4.68;;;10.00;99.90;;;;;;4136865;28;20030;-76
2022/10/20 00:24:02;;;;;;;9.27;4.57;;;9.90;99.90;;;;;;4146300;28;20061;-75
2022/10/20 00:26:07;;;;;;;11.27;4.85;;;9.90;99.90;;;;;;4136119;28;20068;-76
2022/10/20 00:28:08;;;;;;;7.88;4.43;;;9.80;99.90;;;;;;4142046;28;20468;-76
2022/10/20 00:30:09;;;;;;;10.93;4.72;;;9.80;99.90;;;;;;4136371;28;20026;-75
2022/10/20 00:32:09;;;;;;;11.63;5.13;;;9.90;99.90;;;;;;4140100;28;20030;-76
2022/10/20 00:34:10;;;;;;;9.60;4.95;;;9.90;99.90;;;;;;4138254;28;20491;-75
2022/10/20 00:36:13;;;;;;;9.20;4.72;;;9.90;99.90;;;;;;4140794;28;20111;-75
2022/10/20 00:38:14;;;;;;;9.48;5.05;;;10.00;99.90;;;;;;4137744;28;20055;-75
2022/10/20 00:40:14;;;;;;;11.18;5.43;;;9.80;99.90;;;;;;4152710;28;20057;-75
2022/10/20 00:42:19;;;;;;;13.45;5.47;;;9.80;99.90;;;;;;4134006;28;20149;-74
2022/10/20 00:44:53;;;;;;;18.85;5.45;;;9.80;99.90;;;;;;4131142;28;20145;-75
2022/10/20 00:46:55;;;;;;;8.02;4.68;;;9.80;99.90;;;;;;4138123;28;20042;-75
2022/10/20 00:49:00;;;;;;;9.48;4.68;;;9.70;99.90;;;;;;4141603;28;20037;-75
2022/10/20 00:51:01;;;;;;;8.05;4.47;;;9.80;99.90;;;;;;4136391;28;20484;-71
2022/10/20 00:53:01;;;;;;;11.88;4.85;;;9.80;99.90;;;;;;4137091;28;20077;-72
2022/10/20 00:55:03;;;;;;;9.88;4.50;;;9.90;99.90;;;;;;4135014;28;20488;-70
2022/10/20 00:57:04;;;;;;;7.65;4.28;;;9.90;99.90;;;;;;4142638;28;20064;-75
2022/10/20 00:59:05;;;;;;;9.63;4.63;;;10.00;99.90;;;;;;4143098;28;20037;-74
2022/10/20 01:01:05;;;;;;;8.68;4.85;;;9.90;99.90;;;;;;4137592;28;20256;-75
2022/10/20 01:03:11;;;;;;;7.15;4.30;;;9.90;99.90;;;;;;4141075;28;20065;-73
2022/10/20 01:05:12;;;;;;;12.80;5.10;;;9.90;99.90;;;;;;4135492;28;20034;-75
2022/10/20 01:07:13;;;;;;;11.18;5.20;;;9.80;99.90;;;;;;4144064;28;20380;-75
2022/10/20 01:09:14;;;;;;;9.02;4.63;;;9.70;99.90;;;;;;4139983;28;20404;-75
2022/10/20 01:11:32;;;;;;;14.05;5.40;;;9.70;99.90;;;;;;4138239;28;20488;-76
2022/10/20 01:14:04;;;;;;;8.65;4.85;;;9.60;99.90;;;;;;4138153;28;20034;-75
2022/10/20 01:16:42;;;;;;;11.13;5.70;;;9.70;99.90;;;;;;4144056;28;20414;-74
2022/10/20 01:19:06;;;;;;;9.45;5.30;;;9.60;99.90;;;;;;4147811;28;20084;-75
2022/10/20 01:21:44;;;;;;;10.40;4.97;;;9.70;99.90;;;;;;4135002;28;21590;-75
2022/10/20 01:24:10;;;;;;;11.23;5.35;;;9.60;99.90;;;;;;4139482;28;20038;-76
2022/10/20 01:26:47;;;;;;;7.57;4.97;;;9.50;99.90;;;;;;4139398;28;20506;-75
2022/10/20 01:29:07;;;;;;;8.48;5.32;;;9.70;99.90;;;;;;4136588;28;20407;-73
2022/10/20 01:31:38;;;;;;;8.73;5.30;;;9.70;99.90;;;;;;4137928;28;20034;-75
2022/10/20 01:33:53;;;;;;;8.75;4.55;;;9.70;99.90;;;;;;4155891;28;20721;-74
2022/10/20 01:36:08;;;;;;;8.55;5.28;;;9.80;99.90;;;;;;4139302;28;20173;-74
2022/10/20 01:38:24;;;;;;;9.93;5.57;;;9.80;99.90;;;;;;4137610;28;20053;-75
2022/10/20 01:40:46;;;;;;;10.20;5.53;;;9.70;99.90;;;;;;4136181;28;20034;-75
2022/10/20 01:42:49;;;;;;;10.82;5.68;;;9.70;99.90;;;;;;4142120;28;20038;-75
2022/10/20 01:44:54;;;;;;;15.65;6.40;;;9.70;99.90;;;;;;4136577;28;20108;-75
2022/10/20 01:46:57;;;;;;;8.93;5.40;;;9.60;99.90;;;;;;4136351;28;20041;-75
2022/10/20 01:49:00;;;;;;;11.73;5.65;;;9.70;99.90;;;;;;4140816;28;20033;-75
2022/10/20 01:51:02;;;;;;;10.05;4.88;;;9.80;99.90;;;;;;4157327;28;20064;-75
2022/10/20 01:53:03;;;;;;;7.15;4.88;;;9.70;99.90;;;;;;4136074;28;20129;-76
2022/10/20 01:55:12;;;;;;;7.20;4.80;;;9.80;99.90;;;;;;4136446;28;20043;-75
2022/10/20 01:57:47;;;;;;;13.65;5.40;;;9.80;99.90;;;;;;4139090;28;20026;-75
2022/10/20 01:59:56;;;;;;;9.20;5.35;;;9.70;99.90;;;;;;4142014;28;20026;-71
2022/10/20 02:02:32;;;;;;;12.30;5.90;;;9.70;99.90;;;;;;4137806;28;20087;-75
2022/10/20 02:05:09;;;;;;;11.32;5.80;;;9.60;99.90;;;;;;4126181;28;20026;-62
2022/10/20 02:07:23;;;;;;;9.93;5.57;;;9.60;99.90;;;;;;4119547;28;20035;-62
2022/10/20 02:09:37;;;;;;;8.32;5.47;;;9.50;99.90;;;;;;4123316;28;20500;-62
2022/10/20 02:11:54;;;;;;;10.25;5.53;;;9.60;99.90;;;;;;4120991;28;20084;-62
2022/10/20 02:13:56;;;;;;;7.18;5.20;;;9.60;99.90;;;;;;4124701;28;20125;-63
2022/10/20 02:16:02;;;;;;;10.50;5.78;;;9.60;99.90;;;;;;4125726;28;20038;-63
2022/10/20 02:18:06;;;;;;;9.10;5.28;;;9.60;99.90;;;;;;4117987;28;20039;-62
2022/10/20 02:20:07;;;;;;;8.93;5.50;;;9.60;99.90;;;;;;4120107;28;20047;-62
2022/10/20 02:22:10;;;;;;;9.85;5.35;;;9.50;99.90;;;;;;4120499;28;20049;-62
2022/10/20 02:24:14;;;;;;;8.35;5.50;;;9.60;99.90;;;;;;4117791;28;20085;-62
2022/10/20 02:26:19;;;;;;;9.23;5.25;;;9.50;99.90;;;;;;4120283;28;20041;-62
2022/10/20 02:28:21;;;;;;;8.40;5.63;;;9.60;99.90;;;;;;4118256;28;20038;-63
2022/10/20 02:30:21;;;;;;;6.97;4.70;;;9.70;99.90;;;;;;4118304;28;20038;-62
2022/10/20 02:32:23;;;;;;;9.20;5.07;;;9.80;99.90;;;;;;4116877;28;20038;-62
2022/10/20 02:34:27;;;;;;;6.80;4.60;;;9.80;99.90;;;;;;4123003;28;20546;-62
2022/10/20 02:36:28;;;;;;;13.63;5.38;;;9.90;99.90;;;;;;4124193;28;20046;-62
2022/10/20 02:38:29;;;;;;;9.45;5.35;;;9.90;99.90;;;;;;4122241;28;20065;-62
2022/10/20 02:40:30;;;;;;;9.50;4.90;;;9.90;99.90;;;;;;4120071;28;20038;-62
2022/10/20 02:42:31;;;;;;;10.32;5.22;;;9.90;99.90;;;;;;4126949;28;20467;-62
2022/10/20 02:44:31;;;;;;;7.53;4.88;;;9.90;99.90;;;;;;4120244;28;20035;-62
2022/10/20 02:46:32;;;;;;;8.27;5.38;;;9.90;99.90;;;;;;4117132;28;20038;-62
2022/10/20 02:48:32;;;;;;;10.63;5.63;;;10.00;99.90;;;;;;4126640;28;20102;-65
2022/10/20 02:50:33;;;;;;;11.23;5.88;;;9.90;99.90;;;;;;4120113;28;20173;-65
2022/10/20 02:52:35;;;;;;;7.13;4.95;;;9.90;99.90;;;;;;4126416;28;20030;-65
2022/10/20 02:54:36;;;;;;;7.25;4.78;;;9.90;99.90;;;;;;4123066;28;20038;-65
2022/10/20 02:56:36;;;;;;;8.13;5.13;;;10.00;99.90;;;;;;4134779;28;20471;-65
2022/10/20 02:58:37;;;;;;;6.47;5.10;;;10.00;99.90;;;;;;4121699;28;20570;-65
2022/10/20 03:00:37;;;;;;;10.10;5.63;;;9.90;99.90;;;;;;4117716;28;20400;-65
2022/10/20 03:02:38;;;;;;;13.95;5.68;;;9.80;99.90;;;;;;4126144;28;20041;-65
2022/10/20 03:04:38;;;;;;;9.23;5.32;;;9.70;99.90;;;;;;4126686;28;20084;-65
2022/10/20 03:06:40;;;;;;;9.43;5.43;;;9.70;99.90;;;;;;4119787;28;20052;-65
2022/10/20 03:08:41;;;;;;;8.18;5.45;;;9.80;99.90;;;;;;4121390;28;20042;-65
2022/10/20 03:10:42;;;;;;;6.40;4.28;;;9.80;99.90;;;;;;4117982;28;20145;-65
2022/10/20 03:12:43;;;;;;;6.13;4.50;;;9.90;99.90;;;;;;4125465;28;20035;-65
2022/10/20 03:14:44;;;;;;;7.85;4.75;;;10.00;99.90;;;;;;4119384;28;20088;-65
2022/10/20 03:16:44;;;;;;;8.25;5.45;;;10.00;99.90;;;;;;4124002;28;20605;-65
2022/10/20 03:18:45;;;;;;;8.73;5.75;;;9.90;99.90;;;;;;4122677;28;20056;-65
2022/10/20 03:20:48;;;;;;;7.32;5.28;;;9.80;99.90;;;;;;4122265;28;20308;-64
2022/10/20 03:22:49;;;;;;;7.18;4.90;;;9.90;99.90;;;;;;4123687;28;20118;-66
2022/10/20 03:24:50;;;;;;;7.45;4.70;;;9.90;99.90;;;;;;4126224;28;20422;-66
2022/10/20 03:26:50;;;;;;;7.40;4.75;;;9.90;99.90;;;;;;4134782;28;20545;-65
2022/10/20 03:28:51;;;;;;;7.50;4.85;;;10.00;99.90;;;;;;4122494;28;20506;-66
2022/10/20 03:30:52;;;;;;;6.88;4.72;;;10.00;99.90;;;;;;4125940;28;20455;-65
2022/10/20 03:32:54;;;;;;;7.03;4.57;;;10.10;99.90;;;;;;4123512;28;20483;-65
2022/10/20 03:34:54;;;;;;;10.35;5.63;;;10.10;99.90;;;;;;4121607;28;20060;-65
2022/10/20 03:36:55;;;;;;;8.32;5.00;;;10.10;99.90;;;;;;4123862;28;20067;-65
2022/10/20 03:38:55;;;;;;;8.07;4.50;;;10.10;99.90;;;;;;4123633;28;20034;-65
2022/10/20 03:40:56;;;;;;;8.93;5.78;;;10.10;99.90;;;;;;4124526;28;20038;-65
2022/10/20 03:42:57;;;;;;;10.40;5.45;;;10.00;99.90;;;;;;4123352;28;20084;-65
2022/10/20 03:44:57;;;;;;;13.18;5.53;;;10.10;99.90;;;;;;4118594;28;20484;-65
2022/10/20 03:46:59;;;;;;;9.25;5.85;;;10.00;99.90;;;;;;4122758;28;20082;-65
2022/10/20 03:48:59;;;;;;;10.80;5.95;;;10.00;99.90;;;;;;4124126;28;20504;-65
2022/10/20 03:51:01;;;;;;;9.48;5.80;;;9.90;99.90;;;;;;4125831;28;20030;-65
2022/10/20 03:53:01;;;;;;;10.48;5.38;;;9.80;99.90;;;;;;4124673;28;20038;-65
2022/10/20 03:55:02;;;;;;;9.30;5.68;;;9.80;99.90;;;;;;4121445;28;20404;-65
2022/10/20 03:57:02;;;;;;;10.02;5.68;;;9.70;99.90;;;;;;4134488;28;20046;-65
2022/10/20 03:59:03;;;;;;;8.75;5.40;;;9.70;99.90;;;;;;4106987;28;20466;-65
2022/10/20 04:01:05;;;;;;;8.90;5.40;;;9.80;99.90;;;;;;4120638;28;20043;-65
2022/10/20 04:03:06;;;;;;;9.75;5.60;;;9.80;99.90;;;;;;4123914;28;20039;-65
2022/10/20 04:05:07;;;;;;;7.57;5.00;;;9.80;99.90;;;;;;4118714;28;20046;-65
2022/10/20 04:07:07;;;;;;;10.38;5.95;;;9.80;99.90;;;;;;4137652;28;20188;-65
2022/10/20 04:09:08;;;;;;;9.07;6.20;;;9.70;99.90;;;;;;4120493;28;20046;-65
2022/10/20 04:11:09;;;;;;;8.82;5.85;;;9.70;99.90;;;;;;4122279;28;20031;-65
2022/10/20 04:13:09;;;;;;;9.57;5.03;;;9.60;99.90;;;;;;4123301;28;20133;-65
2022/10/20 04:15:10;;;;;;;8.30;5.43;;;9.60;99.90;;;;;;4121319;28;21974;-65
2022/10/20 04:17:11;;;;;;;8.10;4.63;;;9.70;99.90;;;;;;4134754;28;20399;-65
2022/10/20 04:19:11;;;;;;;8.45;5.13;;;9.70;99.90;;;;;;4124879;28;20507;-65
2022/10/20 04:21:12;;;;;;;10.88;5.93;;;9.80;99.90;;;;;;4119123;28;20045;-65
2022/10/20 04:23:13;;;;;;;13.77;5.95;;;9.80;99.90;;;;;;4122825;28;20392;-65
2022/10/20 04:25:13;;;;;;;8.88;5.63;;;9.80;99.90;;;;;;4122198;28;20517;-65
2022/10/20 04:27:14;;;;;;;9.70;5.70;;;9.80;99.90;;;;;;4126067;28;20443;-65
2022/10/20 04:29:15;;;;;;;8.95;5.20;;;9.80;99.90;;;;;;4134219;28;20077;-65
2022/10/20 04:31:15;;;;;;;7.78;5.32;;;9.80;99.90;;;;;;4118686;28;20041;-65
2022/10/20 04:33:16;;;;;;;8.07;5.07;;;9.80;99.90;;;;;;4122415;28;20101;-65
2022/10/20 04:35:16;;;;;;;9.57;5.80;;;9.80;99.90;;;;;;4121106;28;20039;-65
2022/10/20 04:37:17;;;;;;;6.28;5.07;;;9.80;99.90;;;;;;4125238;28;20499;-65
2022/10/20 04:39:18;;;;;;;8.38;5.78;;;9.80;99.90;;;;;;4120165;28;20035;-65
2022/10/20 04:41:18;;;;;;;11.75;6.47;;;9.80;99.90;;;;;;4123961;28;20071;-65
2022/10/20 04:43:19;;;;;;;10.23;6.10;;;9.80;99.90;;;;;;4122059;28;20030;-65
2022/10/20 04:45:19;;;;;;;11.43;6.47;;;9.70;99.90;;;;;;4120438;28;20238;-65
2022/10/20 04:47:20;;;;;;;13.23;6.15;;;9.70;99.90;;;;;;4119301;28;20077;-65
2022/10/20 04:49:20;;;;;;;9.30;5.80;;;9.70;99.90;;;;;;4118342;28;20058;-66
2022/10/20 04:51:21;;;;;;;10.88;5.75;;;9.70;99.90;;;;;;4119645;28;20050;-66
2022/10/20 04:53:22;;;;;;;7.38;5.15;;;9.80;99.90;;;;;;4115725;28;20030;-65
2022/10/20 04:55:22;;;;;;;6.72;5.00;;;9.90;99.90;;;;;;4120744;28;20030;-65
2022/10/20 04:57:23;;;;;;;9.45;5.25;;;9.90;99.90;;;;;;4132070;28;20042;-65
2022/10/20 04:59:24;;;;;;;8.93;5.90;;;9.90;99.90;;;;;;4123778;28;20496;-65
2022/10/20 05:01:27;;;;;;;7.75;5.60;;;9.80;99.90;;;;;;4117334;28;20026;-65
2022/10/20 05:03:28;;;;;;;6.93;5.63;;;9.80;99.90;;;;;;4119694;28;20057;-65
2022/10/20 05:05:28;;;;;;;9.10;5.57;;;9.60;99.90;;;;;;4119028;28;20034;-65
2022/10/20 05:07:29;;;;;;;12.10;5.82;;;9.60;99.90;;;;;;4131429;28;20031;-65
2022/10/20 05:09:31;;;;;;;8.25;5.80;;;9.60;99.90;;;;;;4122577;28;20050;-65
2022/10/20 05:11:35;;;;;;;7.82;4.97;;;9.60;99.90;;;;;;4118264;28;20050;-65
2022/10/20 05:13:36;;;;;;;7.13;4.90;;;9.60;99.90;;;;;;4119504;28;20038;-65
2022/10/20 05:15:36;;;;;;;6.60;4.38;;;9.70;99.90;;;;;;4127380;28;20412;-65
2022/10/20 05:17:37;;;;;;;6.57;4.38;;;9.80;99.90;;;;;;4121704;28;20038;-65
2022/10/20 05:19:37;;;;;;;7.15;4.60;;;9.80;99.90;;;;;;4135759;28;20038;-65
2022/10/20 05:21:38;;;;;;;6.45;4.63;;;9.90;99.90;;;;;;4120056;28;20037;-67
2022/10/20 05:23:40;;;;;;;6.63;4.88;;;10.00;99.90;;;;;;4117025;28;20058;-66
2022/10/20 05:25:40;;;;;;;9.27;5.47;;;10.10;99.90;;;;;;4134955;28;20037;-65
2022/10/20 05:27:41;;;;;;;8.45;5.70;;;10.20;99.90;;;;;;4120107;28;20060;-66
2022/10/20 05:29:41;;;;;;;7.60;4.78;;;10.20;99.90;;;;;;4132317;28;20042;-65
2022/10/20 05:31:43;;;;;;;10.25;6.07;;;10.30;99.90;;;;;;4118492;28;20039;-65
2022/10/20 05:33:50;;;;;;;8.23;5.43;;;10.30;99.90;;;;;;4122749;28;20042;-65
2022/10/20 05:35:50;;;;;;;7.32;5.30;;;10.40;99.90;;;;;;4123264;28;20113;-66
2022/10/20 05:37:51;;;;;;;9.32;5.07;;;10.40;99.90;;;;;;4122468;28;20031;-67
2022/10/20 05:39:52;;;;;;;7.05;4.93;;;10.50;99.90;;;;;;4121964;28;20041;-68
2022/10/20 05:41:52;;;;;;;8.38;5.65;;;10.50;99.90;;;;;;4122726;28;20153;-66
2022/10/20 05:43:58;;;;;;;11.25;6.45;;;10.50;99.90;;;;;;4125635;28;20041;-66
2022/10/20 05:45:59;;;;;;;12.27;6.07;;;10.60;99.90;;;;;;4121790;28;20042;-66
2022/10/20 05:47:59;;;;;;;12.05;5.68;;;10.70;99.90;;;;;;4125567;28;20065;-67
2022/10/20 05:50:00;;;;;;;13.18;6.25;;;10.70;99.90;;;;;;4125453;28;20034;-66
2022/10/20 05:52:01;;;;;;;10.68;6.63;;;10.80;99.90;;;;;;4124940;28;20395;-66
2022/10/20 05:54:02;;;;;;;11.77;5.95;;;10.90;99.90;;;;;;4125413;28;20066;-67
2022/10/20 05:56:08;;;;;;;7.72;5.45;;;11.00;99.90;;;;;;4122545;28;20108;-66
2022/10/20 05:58:09;;;;;;;9.38;6.15;;;11.20;99.90;;;;;;4123627;28;20049;-66
2022/10/20 06:00:10;;;;;;;8.95;5.90;;;11.30;99.90;;;;;;4122371;28;20042;-68
2022/10/20 06:02:11;;;;;;;8.07;5.05;;;11.30;99.90;;;;;;4122798;28;20622;-65
2022/10/20 06:04:12;;;;;;;8.40;5.78;;;11.40;99.90;;;;;;4123598;28;20105;-66
2022/10/20 06:06:12;;;;;;;7.93;5.70;;;11.50;99.90;;;;;;4125031;28;20125;-65
2022/10/20 06:08:13;;;;;;;9.38;5.57;;;11.60;99.90;;;;;;4139497;28;20068;-65
2022/10/20 06:10:13;;;;;;;7.28;5.10;;;11.70;99.90;;;;;;4123442;28;20050;-65
2022/10/20 06:12:14;;;;;;;8.80;5.53;;;11.80;99.90;;;;;;4123791;28;20046;-64
2022/10/20 06:14:16;;;;;;;9.27;5.80;;;11.80;99.90;;;;;;4126459;28;20060;-65
2022/10/20 06:16:19;;;;;;;7.95;5.20;;;11.90;99.90;;;;;;4124988;28;20061;-65
2022/10/20 06:18:20;;;;;;;9.80;5.40;;;12.00;99.90;;;;;;4139083;28;20050;-66
2022/10/20 06:20:21;;;;;;;10.57;4.60;;;12.00;99.90;;;;;;4124321;28;20364;-65
2022/10/20 06:22:21;;;;;;;6.70;4.72;;;12.10;99.90;;;;;;4123340;28;20122;-65
2022/10/20 06:24:22;;;;;;;9.20;5.68;;;12.10;99.90;;;;;;4123317;28;20038;-65
2022/10/20 06:26:25;;;;;;;8.50;5.47;;;12.20;99.90;;;;;;4121834;28;20045;-66
2022/10/20 06:28:25;;;;;;;6.25;4.90;;;12.20;99.90;;;;;;4124406;28;20042;-66
2022/10/20 06:30:26;;;;;;;7.43;5.10;;;12.30;99.90;;;;;;4126637;28;20038;-65
2022/10/20 06:32:26;;;;;;;7.95;5.30;;;12.20;99.90;;;;;;4123084;28;20026;-65
2022/10/20 06:34:27;;;;;;;8.02;5.32;;;12.30;99.90;;;;;;4125188;28;20041;-66
2022/10/20 06:36:28;;;;;;;9.13;5.65;;;12.30;99.90;;;;;;4112591;28;20332;-67
2022/10/20 06:38:28;;;;;;;7.78;5.28;;;12.40;99.90;;;;;;4098106;28;20043;-67
2022/10/20 06:40:29;;;;;;;11.48;5.15;;;12.40;99.90;;;;;;4096753;28;20304;-67
2022/10/20 06:42:29;;;;;;;10.95;5.28;;;12.40;99.90;;;;;;4104183;28;20097;-68
2022/10/20 06:44:30;;;;;;;8.45;5.75;;;12.50;99.90;;;;;;4097863;28;20388;-68
2022/10/20 06:46:34;;;;;;;9.43;5.10;;;12.50;99.90;;;;;;4098925;28;20039;-67
2022/10/20 06:48:34;;;;;;;8.07;5.60;;;12.50;99.90;;;;;;4098087;28;20280;-66
2022/10/20 06:50:35;;;;;;;8.20;5.70;;;12.60;99.90;;;;;;4111868;28;20038;-68
2022/10/20 06:52:36;;;;;;;7.45;5.00;;;12.60;99.90;;;;;;4094837;28;20593;-67
2022/10/20 06:54:36;;;;;;;15.13;5.60;;;12.60;99.90;;;;;;4100730;28;20038;-67
2022/10/20 06:56:38;;;;;;;7.72;5.35;;;12.60;99.90;;;;;;4093189;28;20042;-67
2022/10/20 06:58:41;;;;;;;8.48;5.25;;;12.60;99.90;;;;;;4101291;28;20035;-67
2022/10/20 07:00:41;;;;;;;7.57;4.85;;;12.70;99.90;;;;;;4126308;28;20045;-66
2022/10/20 07:02:42;;;;;;;7.85;4.65;;;12.70;99.90;;;;;;4123777;28;20518;-66
2022/10/20 07:04:43;;;;;;;9.45;5.25;;;12.80;99.90;;;;;;4124735;28;20034;-65
2022/10/20 07:06:45;;;;;;;10.05;5.10;;;12.80;99.90;;;;;;4123059;28;20038;-65
2022/10/20 07:08:46;;;;;;;6.65;4.93;;;12.80;99.90;;;;;;4122592;28;20069;-65
2022/10/20 07:10:55;;;;;;;11.13;4.88;;;12.80;99.90;;;;;;4117982;28;20034;-65
2022/10/20 07:12:56;;;;;;;8.07;4.88;;;12.80;99.90;;;;;;4120594;28;20046;-66
2022/10/20 07:14:56;;;;;;;8.10;4.80;;;12.90;99.90;;;;;;4123257;28;20034;-65
2022/10/20 07:16:57;;;;;;;9.90;5.63;;;12.80;99.90;;;;;;4121934;28;20415;-66
2022/10/20 07:18:59;;;;;;;10.18;5.32;;;12.90;99.90;;;;;;4124272;28;20430;-65
2022/10/20 07:21:03;;;;;;;8.88;4.72;;;12.90;99.90;;;;;;4138189;28;20038;-65
2022/10/20 07:23:04;;;;;;;7.32;5.18;;;12.90;99.90;;;;;;4121495;28;20129;-64
2022/10/20 07:25:05;;;;;;;6.32;4.80;;;13.00;99.90;;;;;;4124207;28;20120;-65
2022/10/20 07:27:06;;;;;;;9.38;4.63;;;13.00;99.90;;;;;;4139245;28;20435;-65
2022/10/20 07:29:07;;;;;;;7.57;4.82;;;13.00;99.90;;;;;;4123478;28;20042;-65
2022/10/20 07:31:14;;;;;;;7.00;5.00;;;13.00;99.90;;;;;;4125734;28;20509;-65
2022/10/20 07:33:14;;;;;;;7.93;5.18;;;13.00;99.90;;;;;;4123765;28;20046;-64
2022/10/20 07:35:15;;;;;;;12.45;5.57;;;13.10;99.90;;;;;;4124003;28;20038;-65
2022/10/20 07:37:15;;;;;;;10.00;5.82;;;13.10;99.90;;;;;;4138056;28;20554;-65
2022/10/20 07:39:16;;;;;;;8.88;5.47;;;13.00;99.90;;;;;;4118520;28;20105;-65
2022/10/20 07:41:17;;;;;;;10.35;5.45;;;13.10;99.90;;;;;;4137868;28;20260;-66
2022/10/20 07:43:18;;;;;;;8.68;5.72;;;13.10;99.90;;;;;;4124145;28;20047;-65
2022/10/20 07:45:19;;;;;;;9.45;5.40;;;13.10;99.90;;;;;;4123921;28;20034;-66
2022/10/20 07:47:19;;;;;;;9.60;5.60;;;13.10;99.90;;;;;;4124800;28;20041;-65
2022/10/20 07:49:20;;;;;;;7.82;5.22;;;13.10;99.90;;;;;;4123703;28;20035;-66
2022/10/20 07:51:21;;;;;;;10.27;5.63;;;13.20;99.90;;;;;;4122621;28;20145;-65
2022/10/20 07:53:21;;;;;;;13.02;5.32;;;13.20;99.90;;;;;;4138246;28;20388;-66
2022/10/20 07:55:22;;;;;;;9.32;5.55;;;13.20;99.90;;;;;;4123325;28;20036;-64
2022/10/20 07:57:22;;;;;;;6.97;4.93;;;13.20;99.90;;;;;;4121634;28;20089;-65
2022/10/20 07:59:23;;;;;;;9.13;6.10;;;13.30;99.90;;;;;;4123879;28;20050;-65
2022/10/20 08:01:24;;;;;;;9.65;5.55;;;13.30;99.90;;;;;;4123626;28;20034;-67
2022/10/20 08:03:24;;;;;;;8.63;5.40;;;13.30;99.90;;;;;;4137852;28;20491;-65
2022/10/20 08:05:25;;;;;;;13.10;5.20;;;13.30;99.90;;;;;;4119167;28;20038;-65
2022/10/20 08:07:26;;;;;;;8.50;5.68;;;13.40;99.90;;;;;;4120328;28;20026;-67
2022/10/20 08:09:27;;;;;;;13.07;6.15;;;13.40;99.90;;;;;;4123265;28;20539;-66
2022/10/20 08:11:27;;;;;;;7.90;4.97;;;13.40;99.90;;;;;;4122160;28;20396;-66
2022/10/20 08:13:28;;;;;;;7.97;5.13;;;13.50;99.90;;;;;;4121575;28;20113;-65
2022/10/20 08:15:29;;;;;;;7.88;5.40;;;13.50;99.90;;;;;;4122816;28;20030;-65
2022/10/20 08:17:29;;;;;;;11.30;5.82;;;13.50;99.90;;;;;;4122568;28;20026;-65
2022/10/20 08:19:31;;;;;;;7.88;5.15;;;13.50;99.90;;;;;;4121428;28;20038;-65
2022/10/20 08:21:31;;;;;;;8.10;5.32;;;13.60;99.90;;;;;;4122819;28;20093;-67
2022/10/20 08:23:32;;;;;;;8.15;5.20;;;13.60;99.90;;;;;;4121793;28;20109;-65
2022/10/20 08:25:32;;;;;;;9.15;5.57;;;13.60;99.90;;;;;;4121654;28;20133;-65
2022/10/20 08:27:33;;;;;;;9.55;5.40;;;13.60;99.90;;;;;;4120780;28;20034;-66
2022/10/20 08:29:34;;;;;;;7.22;5.20;;;13.70;99.90;;;;;;4121233;28;20034;-66
2022/10/20 08:31:35;;;;;;;9.30;5.60;;;13.70;99.90;;;;;;4120970;28;20042;-65
2022/10/20 08:33:35;;;;;;;8.80;5.75;;;13.70;99.90;;;;;;4120785;28;20045;-66
2022/10/20 08:35:36;;;;;;;8.57;5.15;;;13.80;99.90;;;;;;4120807;28;20387;-65
2022/10/20 08:37:37;;;;;;;11.77;5.72;;;13.80;99.90;;;;;;4123102;28;20935;-65
2022/10/20 08:39:37;;;;;;;9.98;4.93;;;13.90;99.90;;;;;;4119156;28;20039;-64
2022/10/20 08:41:42;;;;;;;10.52;6.13;;;14.00;99.90;;;;;;4120066;28;20515;-65
2022/10/20 08:43:44;;;;;;;12.02;5.50;;;14.10;99.90;;;;;;4121550;28;20161;-66
2022/10/20 08:45:45;;;;;;;9.82;5.18;;;14.10;99.90;;;;;;4121338;28;20031;-65
2022/10/20 08:47:48;;;;;;;8.93;5.75;;;14.20;99.90;;;;;;4120450;28;20045;-65
2022/10/20 08:49:49;;;;;;;9.55;5.90;;;14.20;99.90;;;;;;4121178;28;20039;-66
2022/10/20 08:51:49;;;;;;;15.23;5.63;;;14.30;99.90;;;;;;4122741;28;20038;-65
2022/10/20 08:53:56;;;;;;;12.98;6.30;;;14.30;99.90;;;;;;4122531;28;20035;-65
2022/10/20 08:55:57;;;;;;;10.80;5.57;;;14.40;99.90;;;;;;4120967;28;20035;-66
2022/10/20 08:58:10;;;;;;;16.13;6.47;;;14.40;99.90;;;;;;4123138;28;20022;-65
2022/10/20 09:00:30;;;;;;;11.15;6.55;;;14.50;99.90;;;;;;4121995;28;20038;-65
2022/10/20 09:02:33;;;;;;;11.13;6.68;;;14.50;99.90;;;;;;4122187;28;20649;-65
2022/10/20 09:04:39;;;;;;;;;;;14.50;99.90;;;;;;4127115;28;20058;-65
2022/10/20 09:06:43;;;;;;;11.88;6.45;;;14.60;99.90;;;;;;4136921;28;19983;-65
2022/10/20 09:08:45;;;;;;;10.77;6.63;;;14.60;99.90;;;;;;4122469;28;20117;-65
2022/10/20 09:10:49;;;;;;;12.18;6.28;;;14.60;99.90;;;;;;4121865;28;20046;-66
2022/10/20 09:12:51;;;;;;;9.77;6.22;;;14.60;99.90;;;;;;4120303;28;20038;-65
2022/10/20 09:14:51;;;;;;;12.70;5.75;;;14.60;99.90;;;;;;4122018;28;20046;-65
2022/10/20 09:16:52;;;;;;;9.98;5.60;;;14.60;99.90;;;;;;4140373;28;20053;-65
2022/10/20 09:18:56;;;;;;;11.15;6.25;;;14.70;99.90;;;;;;4123675;28;20831;-65
2022/10/20 09:21:03;;;;;;;8.55;6.00;;;14.70;99.90;;;;;;4140490;28;20062;-65
2022/10/20 09:23:04;;;;;;;11.75;5.78;;;14.70;99.90;;;;;;4125145;28;20042;-65
2022/10/20 09:25:05;;;;;;;14.05;6.53;;;14.70;99.90;;;;;;4125104;28;20121;-65
2022/10/20 09:27:22;;;;;;;10.45;6.20;;;14.70;99.90;;;;;;4120472;28;20065;-65
2022/10/20 09:29:34;;;;;;;10.38;6.25;;;14.70;99.90;;;;;;4120486;28;20035;-65
2022/10/20 09:31:38;;;;;;;12.68;5.70;;;14.70;99.90;;;;;;4124473;28;20133;-65
2022/10/20 09:33:39;;;;;;;8.13;5.70;;;14.70;99.90;;;;;;4123307;28;20038;-65
2022/10/20 09:35:40;;;;;;;10.75;6.38;;;14.70;99.90;;;;;;4123115;28;20038;-65
2022/10/20 09:37:43;;;;;;;8.43;6.20;;;14.70;99.90;;;;;;4124179;28;20037;-65
2022/10/20 09:39:53;;;;;;;11.05;6.18;;;14.70;99.90;;;;;;4123148;28;20097;-65
2022/10/20 09:42:10;;;;;;;12.88;6.38;;;14.70;99.90;;;;;;4121339;28;20459;-65
2022/10/20 09:44:22;;;;;;;12.00;6.30;;;14.60;99.90;;;;;;4123437;28;20058;-66
2022/10/20 09:46:29;;;;;;;8.88;6.32;;;14.70;99.90;;;;;;4123656;28;20027;-65
2022/10/20 09:48:36;;;;;;;7.80;5.57;;;14.70;99.90;;;;;;4138392;28;20133;-65
2022/10/20 09:50:39;;;;;;;14.52;6.18;;;14.70;99.90;;;;;;4139198;28;20036;-65
2022/10/20 09:52:46;;;;;;;;;;;14.70;99.90;;;;;;4124690;28;20094;-66
2022/10/20 09:54:48;;;;;;;10.75;5.55;;;14.70;99.90;;;;;;4123261;28;19913;-65
2022/10/20 09:56:49;;;;;;;8.93;5.83;;;14.70;99.90;;;;;;4137170;28;20046;-66
2022/10/20 09:58:50;;;;;;;9.68;6.35;;;14.70;99.90;;;;;;4123510;28;20113;-66
2022/10/20 10:01:00;;;;;;;10.57;5.85;;;14.60;99.90;;;;;;4123668;28;20062;-66
2022/10/20 10:03:20;;;;;;;8.40;5.78;;;14.60;99.90;;;;;;4123050;28;20043;-65
2022/10/20 10:05:20;;;;;;;11.32;6.32;;;14.60;99.90;;;;;;4123985;28;20034;-66
2022/10/20 10:07:21;;;;;;;8.30;5.57;;;14.60;99.90;;;;;;4124351;28;20038;-65
2022/10/20 10:09:24;;;;;;;11.45;6.03;;;14.70;99.90;;;;;;4138708;28;20042;-65
2022/10/20 10:11:32;;;;;;;17.33;6.35;;;14.70;99.90;;;;;;4123578;28;20057;-65
2022/10/20 10:13:40;;;;;;;10.75;6.70;;;14.70;99.90;;;;;;4124456;28;20298;-65
2022/10/20 10:15:40;;;;;;;10.57;5.80;;;14.70;99.90;;;;;;4137626;28;20065;-66
2022/10/20 10:17:42;;;;;;;9.43;6.03;;;14.80;99.90;;;;;;4121026;28;20038;-67
2022/10/20 10:19:47;;;;;;;12.48;5.85;;;14.70;99.90;;;;;;4124632;28;20040;-65
2022/10/20 10:21:53;;;;;;;9.02;5.97;;;14.70;99.90;;;;;;4121672;28;20030;-65
2022/10/20 10:23:57;;;;;;;9.05;5.72;;;14.70;99.90;;;;;;4139921;28;20026;-65
2022/10/20 10:25:58;;;;;;;9.13;5.45;;;14.80;99.90;;;;;;4123948;28;20042;-65
2022/10/20 10:28:05;;;;;;;10.43;6.20;;;14.80;99.90;;;;;;4137384;28;20044;-65
2022/10/20 10:30:36;;;;;;;11.10;6.40;;;14.80;99.90;;;;;;4122738;28;20046;-65
2022/10/20 10:32:43;;;;;;;13.52;5.60;;;14.80;99.90;;;;;;4121709;28;20586;-65
2022/10/20 10:35:06;;;;;;;9.63;5.97;;;14.90;99.90;;;;;;4123889;28;20443;-65
2022/10/20 10:37:12;;;;;;;8.98;6.00;;;14.90;99.90;;;;;;4136869;28;20561;-66
2022/10/20 10:39:14;;;;;;;7.60;5.40;;;15.00;99.90;;;;;;4121878;28;20125;-67
2022/10/20 10:41:14;;;;;;;8.43;5.40;;;15.00;99.90;;;;;;4136475;28;20434;-66
2022/10/20 10:43:30;;;;;;;10.10;6.35;;;15.00;99.90;;;;;;4124398;28;20096;-65
2022/10/20 10:46:06;;;;;;;10.63;6.22;;;15.00;99.90;;;;;;4137097;28;20522;-65